createdAt,value
2023-04-19T00:00:18.344Z,27.20
2023-04-19T00:03:07.969Z,25.00
2023-04-19T00:05:38.413Z,27.10
2023-04-19T00:08:06.540Z,23.30
2023-04-19T00:10:40.090Z,26.60
2023-04-19T00:13:08.235Z,26.80
2023-04-19T00:15:36.405Z,24.90
2023-04-19T00:18:04.557Z,24.30
2023-04-19T00:20:33.127Z,25.40
2023-04-19T00:23:01.197Z,24.50
2023-04-19T00:25:31.216Z,25.20
2023-04-19T00:27:59.262Z,25.10
2023-04-19T00:30:28.308Z,27.30
2023-04-19T00:32:56.349Z,25.40
2023-04-19T00:35:26.047Z,23.60
2023-04-19T00:37:54.259Z,24.20
2023-04-19T00:40:22.302Z,23.80
2023-04-19T00:42:50.478Z,24.30
2023-04-19T00:45:18.605Z,22.80
2023-04-19T00:47:46.575Z,24.10
2023-04-19T00:50:14.856Z,26.70
2023-04-19T00:52:43.148Z,24.10
2023-04-19T00:55:11.148Z,24.20
2023-04-19T00:57:39.235Z,23.10
2023-04-19T01:00:09.896Z,22.40
2023-04-19T01:02:38.263Z,24.70
2023-04-19T01:05:07.217Z,21.40
2023-04-19T01:07:35.440Z,22.30
2023-04-19T01:10:03.977Z,20.40
2023-04-19T01:12:31.971Z,22.30
2023-04-19T01:15:00.081Z,22.40
2023-04-19T01:17:30.299Z,23.80
2023-04-19T01:20:03.457Z,22.50
2023-04-19T01:22:32.144Z,20.70
2023-04-19T01:25:00.804Z,21.10
2023-04-19T01:27:28.721Z,21.70
2023-04-19T01:29:59.096Z,21.10
2023-04-19T01:32:28.287Z,21.50
2023-04-19T01:34:57.634Z,21.70
2023-04-19T01:37:25.614Z,23.10
2023-04-19T01:39:53.837Z,24.20
2023-04-19T01:42:22.014Z,23.00
2023-04-19T01:44:50.006Z,21.50
2023-04-19T01:47:18.180Z,22.80
2023-04-19T01:49:46.432Z,21.30
2023-04-19T01:52:14.402Z,21.80
2023-04-19T01:54:42.576Z,23.40
2023-04-19T01:57:10.648Z,21.80
2023-04-19T01:59:38.723Z,24.80
2023-04-19T02:02:08.392Z,22.90
2023-04-19T02:04:37.513Z,21.00
2023-04-19T02:07:06.822Z,24.10
2023-04-19T02:09:38.931Z,22.20
2023-04-19T02:12:07.135Z,21.70
2023-04-19T02:14:36.161Z,21.90
2023-04-19T02:17:04.759Z,21.80
2023-04-19T02:19:33.534Z,21.70
2023-04-19T02:22:01.468Z,22.50
2023-04-19T02:24:29.675Z,22.70
2023-04-19T02:26:58.307Z,22.60
2023-04-19T02:29:26.285Z,21.30
2023-04-19T02:31:54.292Z,21.90
2023-04-19T02:34:22.322Z,23.40
2023-04-19T02:36:50.541Z,21.90
2023-04-19T02:39:18.724Z,22.30
2023-04-19T02:41:46.829Z,21.30
2023-04-19T02:44:15.268Z,22.10
2023-04-19T02:46:53.480Z,21.70
2023-04-19T02:49:21.731Z,21.70
2023-04-19T02:51:51.764Z,22.10
2023-04-19T02:54:19.867Z,24.70
2023-04-19T02:56:48.120Z,22.90
2023-04-19T02:59:16.913Z,21.30
2023-04-19T03:01:45.873Z,21.70
2023-04-19T03:04:14.800Z,21.10
2023-04-19T03:06:44.440Z,24.60
2023-04-19T03:09:13.102Z,20.30
2023-04-19T03:11:41.157Z,20.50
2023-04-19T03:14:09.226Z,22.80
2023-04-19T03:16:39.194Z,21.00
2023-04-19T03:19:07.417Z,21.60
2023-04-19T03:21:39.704Z,24.90
2023-04-19T03:24:08.180Z,21.60
2023-04-19T03:26:37.012Z,21.50
2023-04-19T03:29:05.267Z,23.50
2023-04-19T03:31:53.568Z,21.00
2023-04-19T03:34:21.641Z,21.50
2023-04-19T03:36:50.001Z,21.10
2023-04-19T03:39:18.094Z,21.30
2023-04-19T03:41:47.805Z,21.30
2023-04-19T03:44:25.098Z,24.50
2023-04-19T03:46:54.182Z,20.10
2023-04-19T03:52:00.138Z,21.00
2023-04-19T03:54:28.438Z,22.30
2023-04-19T03:56:57.321Z,20.80
2023-04-19T03:59:26.013Z,19.70
2023-04-19T04:01:55.079Z,19.80
2023-04-19T04:04:24.223Z,21.60
2023-04-19T04:06:52.720Z,20.80
2023-04-19T04:09:20.902Z,21.30
2023-04-19T04:11:49.101Z,20.50
2023-04-19T04:14:17.562Z,19.20
2023-04-19T04:16:47.007Z,19.40
2023-04-19T04:19:15.805Z,20.70
2023-04-19T04:21:43.833Z,20.30
2023-04-19T04:24:12.582Z,20.60
2023-04-19T04:26:52.210Z,20.80
2023-04-19T04:29:29.713Z,19.90
2023-04-19T04:31:59.481Z,20.00
2023-04-19T04:34:31.682Z,19.70
2023-04-19T04:37:05.909Z,19.40
2023-04-19T04:39:39.353Z,18.10
2023-04-19T04:42:09.148Z,19.30
2023-04-19T04:44:39.104Z,18.70
2023-04-19T04:47:08.141Z,19.60
2023-04-19T04:49:41.635Z,19.70
2023-04-19T04:52:10.110Z,19.30
2023-04-19T04:54:44.833Z,18.80
2023-04-19T04:57:21.406Z,18.20
2023-04-19T04:59:49.786Z,17.60
2023-04-19T05:02:19.280Z,18.50
2023-04-19T05:04:47.491Z,18.20
2023-04-19T05:07:15.745Z,19.50
2023-04-19T05:09:44.033Z,19.50
2023-04-19T05:12:13.182Z,18.10
2023-04-19T05:14:41.796Z,18.40
2023-04-19T05:17:09.766Z,19.50
2023-04-19T05:19:38.074Z,19.20
2023-04-19T05:22:07.734Z,18.80
2023-04-19T05:24:36.113Z,17.60
2023-04-19T05:27:04.095Z,17.80
2023-04-19T05:29:32.682Z,19.80
2023-04-19T05:32:00.870Z,19.40
2023-04-19T05:34:32.208Z,20.20
2023-04-19T05:37:00.997Z,18.70
2023-04-19T05:39:29.246Z,18.40
2023-04-19T05:42:00.385Z,18.30
2023-04-19T05:44:28.608Z,17.50
2023-04-19T05:46:56.750Z,17.40
2023-04-19T05:49:54.328Z,17.50
2023-04-19T05:52:29.670Z,18.10
2023-04-19T05:54:59.989Z,16.40
2023-04-19T05:57:28.107Z,18.70
2023-04-19T05:59:56.647Z,16.90
2023-04-19T06:02:27.002Z,17.80
2023-04-19T06:04:55.619Z,16.50
2023-04-19T06:07:32.020Z,17.30
2023-04-19T06:10:02.348Z,16.90
2023-04-19T06:12:30.383Z,16.70
2023-04-19T06:14:58.400Z,18.20
2023-04-19T06:17:27.175Z,19.80
2023-04-19T06:19:55.402Z,18.00
2023-04-19T06:22:23.431Z,16.50
2023-04-19T06:24:51.377Z,15.80
2023-04-19T06:27:19.403Z,16.30
2023-04-19T06:29:48.059Z,14.20
2023-04-19T06:32:18.019Z,15.20
2023-04-19T06:34:46.236Z,16.00
2023-04-19T06:37:14.793Z,16.80
2023-04-19T06:39:42.971Z,16.30
2023-04-19T06:42:12.600Z,17.70
2023-04-19T06:44:40.673Z,16.60
2023-04-19T06:47:08.641Z,17.20
2023-04-19T06:49:37.020Z,16.30
2023-04-19T06:52:05.100Z,15.20
2023-04-19T06:54:33.034Z,14.90
2023-04-19T06:57:02.465Z,16.70
2023-04-19T06:59:32.684Z,17.30
2023-04-19T07:02:00.885Z,14.80
2023-04-19T07:04:29.045Z,14.90
2023-04-19T07:06:57.295Z,15.10
2023-04-19T07:09:25.279Z,14.00
2023-04-19T07:11:53.265Z,14.70
2023-04-19T07:14:21.424Z,14.00
2023-04-19T07:16:50.984Z,15.00
2023-04-19T07:19:21.257Z,15.10
2023-04-19T07:21:49.306Z,15.20
2023-04-19T07:24:17.994Z,14.60
2023-04-19T07:26:46.321Z,14.30
2023-04-19T07:29:14.314Z,14.70
2023-04-19T07:31:42.489Z,15.50
2023-04-19T07:34:10.904Z,15.80
2023-04-19T07:36:39.287Z,13.20
2023-04-19T07:39:07.290Z,14.40
2023-04-19T07:41:36.298Z,15.80
2023-04-19T07:44:04.727Z,15.30
2023-04-19T07:46:32.889Z,13.70
2023-04-19T07:49:00.974Z,13.50
2023-04-19T07:51:29.426Z,13.60
2023-04-19T07:53:57.398Z,13.80
2023-04-19T07:56:26.543Z,13.80
2023-04-19T07:59:06.819Z,13.20
2023-04-19T08:01:37.520Z,13.30
2023-04-19T08:04:06.188Z,13.90
2023-04-19T08:06:34.713Z,14.20
2023-04-19T08:09:03.365Z,15.10
2023-04-19T08:11:32.067Z,13.90
2023-04-19T08:14:09.261Z,13.30
2023-04-19T08:17:19.139Z,12.70
2023-04-19T08:19:31.426Z,12.00
2023-04-19T08:21:59.766Z,12.20
2023-04-19T08:24:27.849Z,15.10
2023-04-19T08:26:58.215Z,14.00
2023-04-19T08:29:27.570Z,12.90
2023-04-19T08:31:55.819Z,14.20
2023-04-19T08:34:23.841Z,13.90
2023-04-19T08:37:03.250Z,14.30
2023-04-19T08:39:34.389Z,13.80
2023-04-19T08:42:10.904Z,14.70
2023-04-19T08:44:59.008Z,13.70
2023-04-19T08:47:34.926Z,12.80
2023-04-19T08:50:17.266Z,14.60
2023-04-19T08:52:58.694Z,12.60
2023-04-19T08:55:29.905Z,13.40
2023-04-19T08:57:58.895Z,12.80
2023-04-19T09:00:26.866Z,13.30
2023-04-19T09:02:56.087Z,12.30
2023-04-19T09:05:24.563Z,12.50
2023-04-19T09:07:52.620Z,12.70
2023-04-19T09:10:22.016Z,12.10
2023-04-19T09:13:05.550Z,10.70
2023-04-19T09:15:38.789Z,12.20
2023-04-19T09:18:10.021Z,13.00
2023-04-19T09:20:40.202Z,13.30
2023-04-19T09:23:12.805Z,13.60
2023-04-19T09:26:19.414Z,13.40
2023-04-19T09:28:56.081Z,13.00
2023-04-19T09:31:43.384Z,12.20
2023-04-19T09:36:46.851Z,11.60
2023-04-19T09:39:28.559Z,11.70
2023-04-19T09:41:56.798Z,11.80
2023-04-19T09:46:56.124Z,12.60
2023-04-19T09:49:37.454Z,11.00
2023-04-19T09:52:15.089Z,10.50
2023-04-19T09:54:43.371Z,12.10
2023-04-19T09:57:11.707Z,12.30
2023-04-19T09:59:39.967Z,12.60
2023-04-19T10:02:11.484Z,12.70
2023-04-19T10:04:57.399Z,11.70
2023-04-19T10:07:31.346Z,11.50
2023-04-19T10:10:15.933Z,11.90
2023-04-19T10:15:26.834Z,11.40
2023-04-19T10:17:57.689Z,10.50
2023-04-19T10:20:49.938Z,10.10
2023-04-19T10:23:20.470Z,11.90
2023-04-19T10:25:48.921Z,9.80
2023-04-19T10:28:17.505Z,11.20
2023-04-19T10:30:56.355Z,11.00
2023-04-19T10:33:27.204Z,9.50
2023-04-19T10:35:59.770Z,9.90
2023-04-19T10:38:44.759Z,9.80
2023-04-19T10:41:16.417Z,9.10
2023-04-19T10:44:09.549Z,9.20
2023-04-19T10:46:40.719Z,9.40
2023-04-19T10:49:10.317Z,8.80
2023-04-19T10:51:42.573Z,8.50
2023-04-19T10:54:32.779Z,8.40
2023-04-19T10:57:06.080Z,7.60
2023-04-19T10:59:35.455Z,9.20
2023-04-19T11:02:06.122Z,8.30
2023-04-19T11:04:57.414Z,7.70
2023-04-19T11:07:25.592Z,9.70
2023-04-19T11:09:53.586Z,10.60
2023-04-19T11:12:22.008Z,8.20
2023-04-19T11:15:00.039Z,9.80
2023-04-19T11:17:32.411Z,16.40
2023-04-19T11:20:06.629Z,10.70
2023-04-19T11:22:39.301Z,8.80
2023-04-19T11:25:14.341Z,9.30
2023-04-19T11:27:44.477Z,10.40
2023-04-19T11:30:13.159Z,7.90
2023-04-19T11:32:49.626Z,7.50
2023-04-19T11:35:22.798Z,7.00
2023-04-19T11:37:51.452Z,6.90
2023-04-19T11:40:22.181Z,8.90
2023-04-19T11:43:00.863Z,7.70
2023-04-19T11:45:34.410Z,6.70
2023-04-19T11:48:14.359Z,6.10
2023-04-19T11:50:44.644Z,7.10
2023-04-19T11:53:21.925Z,7.20
2023-04-19T11:55:53.150Z,7.70
2023-04-19T11:58:49.597Z,7.60
2023-04-19T12:01:22.636Z,8.30
2023-04-19T12:03:51.710Z,7.50
2023-04-19T12:06:25.998Z,6.00
2023-04-19T12:08:55.914Z,5.70
2023-04-19T12:11:27.009Z,7.00
2023-04-19T12:14:14.573Z,5.10
2023-04-19T12:16:45.071Z,5.80
2023-04-19T12:19:20.619Z,5.60
2023-04-19T12:21:48.935Z,5.50
2023-04-19T12:24:17.485Z,4.80
2023-04-19T12:26:57.066Z,5.50
2023-04-19T12:29:25.392Z,5.00
2023-04-19T12:31:53.440Z,5.50
2023-04-19T12:34:21.463Z,5.10
2023-04-19T12:36:50.266Z,5.70
2023-04-19T12:39:18.583Z,5.60
2023-04-19T12:41:48.806Z,5.10
2023-04-19T12:44:16.932Z,4.90
2023-04-19T12:46:44.929Z,5.10
2023-04-19T12:49:13.641Z,5.20
2023-04-19T12:51:42.848Z,5.40
2023-04-19T12:54:11.179Z,5.60
2023-04-19T12:56:39.137Z,4.90
2023-04-19T12:59:07.403Z,4.50
2023-04-19T13:01:35.797Z,4.20
2023-04-19T13:04:04.064Z,4.70
2023-04-19T13:06:32.295Z,4.60
2023-04-19T13:09:01.546Z,3.70
2023-04-19T13:11:29.915Z,5.40
2023-04-19T13:13:57.983Z,4.30
2023-04-19T13:16:26.278Z,4.20
2023-04-19T13:18:55.354Z,4.60
2023-04-19T13:21:24.127Z,4.20
2023-04-19T13:23:53.277Z,4.80
2023-04-19T13:26:21.440Z,4.00
2023-04-19T13:28:49.810Z,5.10
2023-04-19T13:31:17.778Z,3.70
2023-04-19T13:33:46.466Z,4.30
2023-04-19T13:36:14.723Z,4.00
2023-04-19T13:38:42.739Z,4.60
2023-04-19T13:41:11.797Z,4.00
2023-04-19T13:43:39.968Z,3.60
2023-04-19T13:46:07.946Z,4.00
2023-04-19T13:48:36.013Z,4.30
2023-04-19T13:51:04.537Z,4.20
2023-04-19T13:53:33.196Z,4.60
2023-04-19T13:56:01.190Z,4.50
2023-04-19T13:58:29.449Z,4.30
2023-04-19T14:00:57.548Z,3.70
2023-04-19T14:03:26.783Z,4.00
2023-04-19T14:05:55.390Z,3.50
2023-04-19T14:08:23.451Z,3.60
2023-04-19T14:10:51.498Z,3.80
2023-04-19T14:13:19.701Z,3.80
2023-04-19T14:15:47.980Z,4.10
2023-04-19T14:18:16.194Z,4.00
2023-04-19T14:20:45.044Z,3.90
2023-04-19T14:23:13.003Z,4.30
2023-04-19T14:25:40.908Z,4.30
2023-04-19T14:28:08.888Z,4.20
2023-04-19T14:30:36.934Z,4.40
2023-04-19T14:33:04.965Z,4.50
2023-04-19T14:35:33.167Z,4.00
2023-04-19T14:38:01.342Z,4.20
2023-04-19T14:40:29.817Z,3.90
2023-04-19T14:42:57.895Z,4.10
2023-04-19T14:45:26.677Z,3.80
2023-04-19T14:47:54.740Z,3.60
2023-04-19T14:50:23.125Z,3.80
2023-04-19T14:52:51.297Z,3.50
2023-04-19T14:55:19.477Z,3.50
2023-04-19T14:57:47.497Z,3.20
2023-04-19T15:00:16.346Z,3.70
2023-04-19T15:02:44.462Z,4.00
2023-04-19T15:05:13.052Z,3.20
2023-04-19T15:07:41.671Z,3.30
2023-04-19T15:10:10.373Z,3.30
2023-04-19T15:12:38.435Z,3.40
2023-04-19T15:15:07.421Z,4.20
2023-04-19T15:17:35.792Z,3.80
2023-04-19T15:20:05.785Z,3.60
2023-04-19T15:22:34.093Z,3.40
2023-04-19T15:25:02.372Z,3.90
2023-04-19T15:27:31.479Z,3.70
2023-04-19T15:29:59.644Z,4.30
2023-04-19T15:32:30.638Z,4.20
2023-04-19T15:34:58.656Z,3.30
2023-04-19T15:37:27.572Z,3.30
2023-04-19T15:39:56.443Z,3.30
2023-04-19T15:42:24.958Z,3.30
2023-04-19T15:44:52.991Z,3.40
2023-04-19T15:47:21.007Z,4.60
2023-04-19T15:49:49.234Z,4.20
2023-04-19T15:52:18.865Z,4.30
2023-04-19T15:54:46.857Z,4.00
2023-04-19T15:57:14.841Z,4.40
2023-04-19T15:59:42.782Z,4.00
2023-04-19T16:02:11.209Z,4.50
2023-04-19T16:04:39.337Z,4.40
2023-04-19T16:07:07.378Z,4.60
2023-04-19T16:09:36.061Z,4.10
2023-04-19T16:12:04.071Z,5.10
2023-04-19T16:14:32.204Z,4.80
2023-04-19T16:17:03.454Z,5.00
2023-04-19T16:19:31.333Z,4.60
2023-04-19T16:22:02.324Z,4.40
2023-04-19T16:24:30.398Z,4.20
2023-04-19T16:26:58.502Z,4.80
2023-04-19T16:29:27.088Z,4.60
2023-04-19T16:31:55.054Z,4.90
2023-04-19T16:34:25.501Z,4.80
2023-04-19T16:36:53.587Z,4.20
2023-04-19T16:39:22.017Z,4.10
2023-04-19T16:41:50.310Z,5.20
2023-04-19T16:44:18.279Z,4.60
2023-04-19T16:46:46.200Z,4.90
2023-04-19T16:49:14.605Z,4.90
2023-04-19T16:51:42.661Z,4.30
2023-04-19T16:54:10.688Z,5.50
2023-04-19T16:56:38.577Z,4.60
2023-04-19T16:59:06.659Z,7.00
2023-04-19T17:01:34.628Z,6.20
2023-04-19T17:04:02.747Z,6.30
2023-04-19T17:06:32.049Z,6.70
2023-04-19T17:09:05.024Z,7.80
2023-04-19T17:11:34.447Z,8.70
2023-04-19T17:14:02.514Z,7.50
2023-04-19T17:16:30.605Z,7.00
2023-04-19T17:18:58.542Z,8.00
2023-04-19T17:21:27.750Z,7.30
2023-04-19T17:23:55.828Z,8.20
2023-04-19T17:26:23.775Z,9.40
2023-04-19T17:28:51.761Z,7.10
2023-04-19T17:31:20.098Z,7.40
2023-04-19T17:33:48.520Z,8.00
2023-04-19T17:36:16.590Z,8.70
2023-04-19T17:38:45.094Z,8.20
2023-04-19T17:41:16.311Z,8.20
2023-04-19T17:43:45.717Z,8.50
2023-04-19T17:46:14.910Z,8.30
2023-04-19T17:48:42.951Z,7.90
2023-04-19T17:51:11.161Z,7.40
2023-04-19T17:53:39.234Z,7.10
2023-04-19T17:56:07.306Z,7.30
2023-04-19T17:58:36.654Z,7.50
2023-04-19T18:01:06.571Z,8.10
2023-04-19T18:03:35.022Z,8.10
2023-04-19T18:06:03.227Z,7.40
2023-04-19T18:08:31.301Z,7.60
2023-04-19T18:10:59.363Z,7.70
2023-04-19T18:13:28.428Z,8.40
2023-04-19T18:15:56.412Z,8.80
2023-04-19T18:18:24.317Z,9.50
2023-04-19T18:20:52.924Z,8.90
2023-04-19T18:23:20.884Z,7.90
2023-04-19T18:25:55.842Z,10.90
2023-04-19T18:28:23.863Z,9.10
2023-04-19T18:30:51.945Z,11.20
2023-04-19T18:33:20.134Z,9.50
2023-04-19T18:35:48.124Z,9.20
2023-04-19T18:38:16.295Z,8.60
2023-04-19T18:40:44.684Z,10.20
2023-04-19T18:43:12.749Z,9.70
2023-04-19T18:45:41.087Z,9.50
2023-04-19T18:48:09.497Z,10.40
2023-04-19T18:50:38.357Z,10.40
2023-04-19T18:53:06.772Z,10.50
2023-04-19T18:55:35.056Z,11.50
2023-04-19T18:58:03.122Z,10.20
2023-04-19T19:00:31.514Z,10.40
2023-04-19T19:03:00.951Z,9.80
2023-04-19T19:05:30.516Z,10.80
2023-04-19T19:07:58.801Z,11.30
2023-04-19T19:13:02.307Z,9.80
2023-04-19T19:15:30.386Z,10.10
2023-04-19T19:17:58.421Z,12.30
2023-04-19T19:20:26.580Z,10.90
2023-04-19T19:22:54.834Z,10.00
2023-04-19T19:25:23.380Z,11.70
2023-04-19T19:30:27.726Z,11.60
2023-04-19T19:32:56.324Z,12.40
2023-04-19T19:35:25.140Z,10.80
2023-04-19T19:37:53.368Z,11.10
2023-04-19T19:40:22.920Z,11.20
2023-04-19T19:42:51.162Z,10.30
2023-04-19T19:45:19.648Z,9.90
2023-04-19T19:47:49.597Z,10.80
2023-04-19T19:52:51.529Z,12.00
2023-04-19T19:55:19.515Z,10.70
2023-04-19T19:58:23.959Z,10.80
2023-04-19T20:03:07.020Z,12.00
2023-04-19T20:05:35.794Z,11.30
2023-04-19T20:08:10.291Z,11.70
2023-04-19T20:10:40.669Z,11.60
2023-04-19T20:13:09.502Z,11.40
2023-04-19T20:15:38.271Z,11.70
2023-04-19T20:18:06.660Z,12.90
2023-04-19T20:20:36.055Z,9.60
2023-04-19T20:23:04.750Z,11.40
2023-04-19T20:25:32.935Z,10.70
2023-04-19T20:28:01.494Z,10.60
2023-04-19T20:30:29.518Z,11.40
2023-04-19T20:32:57.611Z,9.60
2023-04-19T20:35:26.301Z,11.90
2023-04-19T20:37:54.811Z,11.20
2023-04-19T20:40:23.693Z,11.60
2023-04-19T20:42:52.173Z,10.10
2023-04-19T20:45:20.310Z,10.70
2023-04-19T20:47:48.863Z,11.30
2023-04-19T20:50:16.929Z,12.30
2023-04-19T20:52:45.335Z,11.10
2023-04-19T20:55:13.777Z,21.80
2023-04-19T20:57:41.758Z,11.80
2023-04-19T21:00:10.984Z,13.10
2023-04-19T21:02:39.108Z,11.90
2023-04-19T21:05:07.894Z,10.80
2023-04-19T21:07:35.962Z,11.60
2023-04-19T21:10:05.432Z,14.30
2023-04-19T21:12:34.790Z,12.60
2023-04-19T21:15:04.914Z,11.10
2023-04-19T21:17:32.945Z,12.20
2023-04-19T21:20:02.647Z,12.20
2023-04-19T21:22:30.850Z,11.60
2023-04-19T21:24:58.782Z,10.80
2023-04-19T21:27:26.996Z,11.90
2023-04-19T21:29:55.596Z,11.00
2023-04-19T21:32:24.172Z,12.00
2023-04-19T21:34:52.314Z,12.90
2023-04-19T21:37:21.427Z,12.30
2023-04-19T21:39:49.605Z,15.20
2023-04-19T21:42:18.665Z,12.50
2023-04-19T21:44:46.811Z,11.10
2023-04-19T21:47:14.954Z,12.00
2023-04-19T21:49:42.877Z,12.00
2023-04-19T21:52:10.998Z,12.50
2023-04-19T21:54:38.924Z,12.50
2023-04-19T21:57:06.940Z,13.90
2023-04-19T21:59:36.222Z,11.70
2023-04-19T22:02:04.410Z,11.70
2023-04-19T22:04:32.778Z,12.80
2023-04-19T22:07:03.812Z,12.40
2023-04-19T22:09:31.906Z,13.50
2023-04-19T22:12:01.129Z,12.90
2023-04-19T22:14:30.916Z,14.10
2023-04-19T22:17:02.922Z,12.80
2023-04-19T22:19:31.662Z,13.90
2023-04-19T22:21:59.821Z,12.80
2023-04-19T22:24:27.899Z,11.00
2023-04-19T22:26:57.606Z,12.50
2023-04-19T22:29:25.591Z,12.20
2023-04-19T22:31:53.810Z,13.70
2023-04-19T22:34:22.229Z,13.40
2023-04-19T22:36:50.400Z,12.90
2023-04-19T22:39:18.652Z,11.50
2023-04-19T22:41:47.146Z,12.40
2023-04-19T22:44:15.315Z,10.20
2023-04-19T22:46:44.118Z,11.40
2023-04-19T22:49:12.301Z,10.70
2023-04-19T22:51:42.441Z,13.20
2023-04-19T22:54:10.698Z,10.70
2023-04-19T22:56:39.595Z,12.10
2023-04-19T22:59:08.576Z,11.20
2023-04-19T23:01:36.883Z,10.80
2023-04-19T23:04:05.226Z,11.90
2023-04-19T23:06:33.302Z,10.90
2023-04-19T23:09:01.690Z,11.10
2023-04-19T23:11:30.057Z,12.10
2023-04-19T23:13:58.456Z,11.10
2023-04-19T23:16:26.737Z,13.20
2023-04-19T23:18:55.118Z,10.80
2023-04-19T23:21:23.171Z,11.50
2023-04-19T23:23:51.216Z,9.60
2023-04-19T23:26:19.314Z,11.00
2023-04-19T23:28:47.294Z,9.40
2023-04-19T23:31:15.347Z,10.50
2023-04-19T23:33:43.418Z,10.70
2023-04-19T23:36:11.415Z,8.60
2023-04-19T23:38:39.765Z,10.00
2023-04-19T23:41:11.058Z,11.00
2023-04-19T23:43:39.290Z,10.40
2023-04-19T23:46:07.493Z,11.20
2023-04-19T23:48:35.760Z,11.10
2023-04-19T23:51:03.730Z,11.50
2023-04-19T23:53:31.900Z,9.80
2023-04-19T23:55:59.841Z,9.50
2023-04-19T23:58:27.929Z,10.00
